Terminal Aerodrome Forecast
Issued by NWS Northern Indiana

Home | Current Version | Previous Version | Graphics & Text | Print | Product List | Glossary On
Versions: 1 2 3 4 5 6 7 8 9 10 11 12 13 14 15 16
000
FTUS43 KIWX 122320
TAFFWA
TAF
KFWA 122320Z 1300/1324 28013KT P6SM -SHSN OVC040
     FM130300 27007KT P6SM BKN040
     FM131400 18012KT 4SM -SN OVC050=

USA.gov is the U.S. government's official web portal to all federal, state and local government web resources and services.